sensor_id;sensor_type;location;lat;lon;timestamp;P1;P2;P0
63305;PMS5003;50735;52.060;1.248;2022-10-18T00:02:17;15;8;
63305;PMS5003;50735;52.060;1.248;2022-10-18T00:04:44;7;7;
63305;PMS5003;50735;52.060;1.248;2022-10-18T00:07:10;10;8;
63305;PMS5003;50735;52.060;1.248;2022-10-18T00:09:38;7;7;
63305;PMS5003;50735;52.060;1.248;2022-10-18T00:12:05;7;7;
63305;PMS5003;50735;52.060;1.248;2022-10-18T00:14:32;6;6;
63305;PMS5003;50735;52.060;1.248;2022-10-18T00:16:59;9;7;
63305;PMS5003;50735;52.060;1.248;2022-10-18T00:19:25;13;7;
63305;PMS5003;50735;52.060;1.248;2022-10-18T00:21:52;10;7;
63305;PMS5003;50735;52.060;1.248;2022-10-18T00:24:18;8;7;
63305;PMS5003;50735;52.060;1.248;2022-10-18T00:26:46;9;6;
63305;PMS5003;50735;52.060;1.248;2022-10-18T00:29:13;5;5;
63305;PMS5003;50735;52.060;1.248;2022-10-18T00:31:41;10;9;
63305;PMS5003;50735;52.060;1.248;2022-10-18T00:34:10;10;7;
63305;PMS5003;50735;52.060;1.248;2022-10-18T00:36:38;12;6;
63305;PMS5003;50735;52.060;1.248;2022-10-18T00:39:06;10;9;
63305;PMS5003;50735;52.060;1.248;2022-10-18T00:41:35;7;7;
63305;PMS5003;50735;52.060;1.248;2022-10-18T00:44:04;12;8;
63305;PMS5003;50735;52.060;1.248;2022-10-18T00:47:24;8;5;
63305;PMS5003;50735;52.060;1.248;2022-10-18T00:49:53;8;8;
63305;PMS5003;50735;52.060;1.248;2022-10-18T00:52:25;17;8;
63305;PMS5003;50735;52.060;1.248;2022-10-18T00:54:54;8;8;
63305;PMS5003;50735;52.060;1.248;2022-10-18T00:57:23;9;7;
63305;PMS5003;50735;52.060;1.248;2022-10-18T00:59:51;9;6;
63305;PMS5003;50735;52.060;1.248;2022-10-18T01:02:18;8;7;
63305;PMS5003;50735;52.060;1.248;2022-10-18T01:04:46;9;6;
63305;PMS5003;50735;52.060;1.248;2022-10-18T01:07:15;6;6;
63305;PMS5003;50735;52.060;1.248;2022-10-18T01:09:55;8;7;
63305;PMS5003;50735;52.060;1.248;2022-10-18T01:12:31;14;9;
63305;PMS5003;50735;52.060;1.248;2022-10-18T01:15:09;23;19;
63305;PMS5003;50735;52.060;1.248;2022-10-18T01:17:44;20;17;
63305;PMS5003;50735;52.060;1.248;2022-10-18T01:20:24;14;14;
63305;PMS5003;50735;52.060;1.248;2022-10-18T01:23:12;21;15;
63305;PMS5003;50735;52.060;1.248;2022-10-18T01:25:48;17;14;
63305;PMS5003;50735;52.060;1.248;2022-10-18T01:28:23;14;10;
63305;PMS5003;50735;52.060;1.248;2022-10-18T01:31:04;6;6;
63305;PMS5003;50735;52.060;1.248;2022-10-18T01:33:36;7;7;
63305;PMS5003;50735;52.060;1.248;2022-10-18T01:36:08;11;6;
63305;PMS5003;50735;52.060;1.248;2022-10-18T01:38:41;9;7;
63305;PMS5003;50735;52.060;1.248;2022-10-18T01:41:09;6;6;
63305;PMS5003;50735;52.060;1.248;2022-10-18T01:43:38;7;5;
63305;PMS5003;50735;52.060;1.248;2022-10-18T01:46:06;10;9;
63305;PMS5003;50735;52.060;1.248;2022-10-18T01:48:34;10;7;
63305;PMS5003;50735;52.060;1.248;2022-10-18T01:51:02;8;6;
63305;PMS5003;50735;52.060;1.248;2022-10-18T01:53:30;8;6;
63305;PMS5003;50735;52.060;1.248;2022-10-18T01:56:04;9;7;
63305;PMS5003;50735;52.060;1.248;2022-10-18T01:58:45;8;6;
63305;PMS5003;50735;52.060;1.248;2022-10-18T02:01:26;8;7;
63305;PMS5003;50735;52.060;1.248;2022-10-18T02:04:02;8;8;
63305;PMS5003;50735;52.060;1.248;2022-10-18T02:06:37;9;8;
63305;PMS5003;50735;52.060;1.248;2022-10-18T02:09:10;7;7;
63305;PMS5003;50735;52.060;1.248;2022-10-18T02:11:42;11;6;
63305;PMS5003;50735;52.060;1.248;2022-10-18T02:14:12;11;8;
63305;PMS5003;50735;52.060;1.248;2022-10-18T02:16:42;12;9;
63305;PMS5003;50735;52.060;1.248;2022-10-18T02:19:14;9;8;
63305;PMS5003;50735;52.060;1.248;2022-10-18T02:21:47;10;8;
63305;PMS5003;50735;52.060;1.248;2022-10-18T02:24:15;11;7;
63305;PMS5003;50735;52.060;1.248;2022-10-18T02:26:44;8;6;
63305;PMS5003;50735;52.060;1.248;2022-10-18T02:29:11;9;8;
63305;PMS5003;50735;52.060;1.248;2022-10-18T02:31:40;9;7;
63305;PMS5003;50735;52.060;1.248;2022-10-18T02:34:11;7;7;
63305;PMS5003;50735;52.060;1.248;2022-10-18T02:36:44;7;7;
63305;PMS5003;50735;52.060;1.248;2022-10-18T02:39:15;10;8;
63305;PMS5003;50735;52.060;1.248;2022-10-18T02:41:44;8;7;
63305;PMS5003;50735;52.060;1.248;2022-10-18T02:44:13;11;7;
63305;PMS5003;50735;52.060;1.248;2022-10-18T02:46:40;6;6;
63305;PMS5003;50735;52.060;1.248;2022-10-18T02:49:08;7;7;
63305;PMS5003;50735;52.060;1.248;2022-10-18T02:51:34;8;7;
63305;PMS5003;50735;52.060;1.248;2022-10-18T02:54:01;9;9;
63305;PMS5003;50735;52.060;1.248;2022-10-18T02:56:28;12;7;
63305;PMS5003;50735;52.060;1.248;2022-10-18T02:58:55;5;5;
63305;PMS5003;50735;52.060;1.248;2022-10-18T03:01:22;10;10;
63305;PMS5003;50735;52.060;1.248;2022-10-18T03:03:50;10;8;
63305;PMS5003;50735;52.060;1.248;2022-10-18T03:06:16;8;6;
63305;PMS5003;50735;52.060;1.248;2022-10-18T03:08:43;9;7;
63305;PMS5003;50735;52.060;1.248;2022-10-18T03:11:09;9;6;
63305;PMS5003;50735;52.060;1.248;2022-10-18T03:13:36;10;6;
63305;PMS5003;50735;52.060;1.248;2022-10-18T03:16:03;7;7;
63305;PMS5003;50735;52.060;1.248;2022-10-18T03:18:30;7;7;
63305;PMS5003;50735;52.060;1.248;2022-10-18T03:20:57;8;6;
63305;PMS5003;50735;52.060;1.248;2022-10-18T03:23:24;6;6;
63305;PMS5003;50735;52.060;1.248;2022-10-18T03:25:50;11;10;
63305;PMS5003;50735;52.060;1.248;2022-10-18T03:28:17;10;7;
63305;PMS5003;50735;52.060;1.248;2022-10-18T03:30:44;12;8;
63305;PMS5003;50735;52.060;1.248;2022-10-18T03:33:11;6;6;
63305;PMS5003;50735;52.060;1.248;2022-10-18T03:35:37;9;8;
63305;PMS5003;50735;52.060;1.248;2022-10-18T03:38:04;13;8;
63305;PMS5003;50735;52.060;1.248;2022-10-18T03:40:31;8;8;
63305;PMS5003;50735;52.060;1.248;2022-10-18T03:42:57;10;8;
63305;PMS5003;50735;52.060;1.248;2022-10-18T03:45:24;12;8;
63305;PMS5003;50735;52.060;1.248;2022-10-18T03:47:51;8;6;
63305;PMS5003;50735;52.060;1.248;2022-10-18T03:50:17;11;10;
63305;PMS5003;50735;52.060;1.248;2022-10-18T03:52:44;11;8;
63305;PMS5003;50735;52.060;1.248;2022-10-18T03:55:11;10;8;
63305;PMS5003;50735;52.060;1.248;2022-10-18T03:57:37;8;7;
63305;PMS5003;50735;52.060;1.248;2022-10-18T04:00:04;8;6;
63305;PMS5003;50735;52.060;1.248;2022-10-18T04:02:32;11;7;
63305;PMS5003;50735;52.060;1.248;2022-10-18T04:04:59;9;5;
63305;PMS5003;50735;52.060;1.248;2022-10-18T04:07:26;13;10;
63305;PMS5003;50735;52.060;1.248;2022-10-18T04:09:53;13;9;
63305;PMS5003;50735;52.060;1.248;2022-10-18T04:12:20;8;8;
63305;PMS5003;50735;52.060;1.248;2022-10-18T04:14:46;9;9;
63305;PMS5003;50735;52.060;1.248;2022-10-18T04:17:13;9;9;
63305;PMS5003;50735;52.060;1.248;2022-10-18T04:19:40;12;10;
63305;PMS5003;50735;52.060;1.248;2022-10-18T04:22:07;17;14;
63305;PMS5003;50735;52.060;1.248;2022-10-18T04:24:34;11;8;
63305;PMS5003;50735;52.060;1.248;2022-10-18T04:27:02;9;8;
63305;PMS5003;50735;52.060;1.248;2022-10-18T04:29:30;9;7;
63305;PMS5003;50735;52.060;1.248;2022-10-18T04:31:56;8;7;
63305;PMS5003;50735;52.060;1.248;2022-10-18T04:34:23;9;7;
63305;PMS5003;50735;52.060;1.248;2022-10-18T04:36:50;11;8;
63305;PMS5003;50735;52.060;1.248;2022-10-18T04:39:17;12;6;
63305;PMS5003;50735;52.060;1.248;2022-10-18T04:41:43;8;7;
63305;PMS5003;50735;52.060;1.248;2022-10-18T04:44:10;10;9;
63305;PMS5003;50735;52.060;1.248;2022-10-18T04:46:37;10;8;
63305;PMS5003;50735;52.060;1.248;2022-10-18T04:49:04;8;6;
63305;PMS5003;50735;52.060;1.248;2022-10-18T04:51:31;10;10;
63305;PMS5003;50735;52.060;1.248;2022-10-18T04:53:58;8;7;
63305;PMS5003;50735;52.060;1.248;2022-10-18T04:56:24;13;8;
63305;PMS5003;50735;52.060;1.248;2022-10-18T04:58:51;7;7;
63305;PMS5003;50735;52.060;1.248;2022-10-18T05:01:18;7;7;
63305;PMS5003;50735;52.060;1.248;2022-10-18T05:03:44;10;7;
63305;PMS5003;50735;52.060;1.248;2022-10-18T05:06:11;7;7;
63305;PMS5003;50735;52.060;1.248;2022-10-18T05:08:38;11;8;
63305;PMS5003;50735;52.060;1.248;2022-10-18T05:11:05;8;8;
63305;PMS5003;50735;52.060;1.248;2022-10-18T05:13:31;9;6;
63305;PMS5003;50735;52.060;1.248;2022-10-18T05:15:58;6;6;
63305;PMS5003;50735;52.060;1.248;2022-10-18T05:18:25;10;8;
63305;PMS5003;50735;52.060;1.248;2022-10-18T05:20:52;13;8;
63305;PMS5003;50735;52.060;1.248;2022-10-18T05:23:19;8;8;
63305;PMS5003;50735;52.060;1.248;2022-10-18T05:25:46;13;9;
63305;PMS5003;50735;52.060;1.248;2022-10-18T05:28:13;10;8;
63305;PMS5003;50735;52.060;1.248;2022-10-18T05:30:41;16;6;
63305;PMS5003;50735;52.060;1.248;2022-10-18T05:33:07;9;8;
63305;PMS5003;50735;52.060;1.248;2022-10-18T05:35:34;14;10;
63305;PMS5003;50735;52.060;1.248;2022-10-18T05:38:02;12;7;
63305;PMS5003;50735;52.060;1.248;2022-10-18T05:40:29;9;9;
63305;PMS5003;50735;52.060;1.248;2022-10-18T05:42:55;8;8;
63305;PMS5003;50735;52.060;1.248;2022-10-18T05:45:23;15;12;
63305;PMS5003;50735;52.060;1.248;2022-10-18T05:47:49;10;8;
63305;PMS5003;50735;52.060;1.248;2022-10-18T05:50:16;7;7;
63305;PMS5003;50735;52.060;1.248;2022-10-18T05:52:43;9;8;
63305;PMS5003;50735;52.060;1.248;2022-10-18T05:55:09;16;8;
63305;PMS5003;50735;52.060;1.248;2022-10-18T05:57:36;12;10;
63305;PMS5003;50735;52.060;1.248;2022-10-18T06:00:03;12;9;
63305;PMS5003;50735;52.060;1.248;2022-10-18T06:02:31;9;9;
63305;PMS5003;50735;52.060;1.248;2022-10-18T06:04:57;11;11;
63305;PMS5003;50735;52.060;1.248;2022-10-18T06:07:24;9;9;
63305;PMS5003;50735;52.060;1.248;2022-10-18T06:09:50;14;10;
63305;PMS5003;50735;52.060;1.248;2022-10-18T06:12:17;13;10;
63305;PMS5003;50735;52.060;1.248;2022-10-18T06:14:44;10;9;
63305;PMS5003;50735;52.060;1.248;2022-10-18T06:17:11;11;10;
63305;PMS5003;50735;52.060;1.248;2022-10-18T06:19:38;12;11;
63305;PMS5003;50735;52.060;1.248;2022-10-18T06:22:05;10;10;
63305;PMS5003;50735;52.060;1.248;2022-10-18T06:24:31;13;10;
63305;PMS5003;50735;52.060;1.248;2022-10-18T06:26:59;17;13;
63305;PMS5003;50735;52.060;1.248;2022-10-18T06:29:25;11;11;
63305;PMS5003;50735;52.060;1.248;2022-10-18T06:31:52;16;13;
63305;PMS5003;50735;52.060;1.248;2022-10-18T06:34:19;16;13;
63305;PMS5003;50735;52.060;1.248;2022-10-18T06:36:46;9;9;
63305;PMS5003;50735;52.060;1.248;2022-10-18T06:39:13;9;9;
63305;PMS5003;50735;52.060;1.248;2022-10-18T06:41:40;14;10;
63305;PMS5003;50735;52.060;1.248;2022-10-18T06:44:07;11;9;
63305;PMS5003;50735;52.060;1.248;2022-10-18T06:46:35;13;10;
63305;PMS5003;50735;52.060;1.248;2022-10-18T06:49:02;14;10;
63305;PMS5003;50735;52.060;1.248;2022-10-18T06:51:29;15;10;
63305;PMS5003;50735;52.060;1.248;2022-10-18T06:53:56;10;10;
63305;PMS5003;50735;52.060;1.248;2022-10-18T06:56:23;13;11;
63305;PMS5003;50735;52.060;1.248;2022-10-18T06:58:50;14;10;
63305;PMS5003;50735;52.060;1.248;2022-10-18T07:01:16;13;9;
63305;PMS5003;50735;52.060;1.248;2022-10-18T07:03:44;13;11;
63305;PMS5003;50735;52.060;1.248;2022-10-18T07:06:13;13;12;
63305;PMS5003;50735;52.060;1.248;2022-10-18T07:08:42;13;13;
63305;PMS5003;50735;52.060;1.248;2022-10-18T07:11:13;12;12;
63305;PMS5003;50735;52.060;1.248;2022-10-18T07:13:42;11;11;
63305;PMS5003;50735;52.060;1.248;2022-10-18T07:16:09;15;12;
63305;PMS5003;50735;52.060;1.248;2022-10-18T07:18:37;12;12;
63305;PMS5003;50735;52.060;1.248;2022-10-18T07:21:06;15;12;
63305;PMS5003;50735;52.060;1.248;2022-10-18T07:23:36;19;16;
63305;PMS5003;50735;52.060;1.248;2022-10-18T07:26:10;14;13;
63305;PMS5003;50735;52.060;1.248;2022-10-18T07:28:39;16;11;
63305;PMS5003;50735;52.060;1.248;2022-10-18T07:31:06;12;11;
63305;PMS5003;50735;52.060;1.248;2022-10-18T07:33:34;11;10;
63305;PMS5003;50735;52.060;1.248;2022-10-18T07:36:01;12;9;
63305;PMS5003;50735;52.060;1.248;2022-10-18T07:38:29;12;10;
63305;PMS5003;50735;52.060;1.248;2022-10-18T07:40:55;12;9;
63305;PMS5003;50735;52.060;1.248;2022-10-18T07:43:23;9;9;
63305;PMS5003;50735;52.060;1.248;2022-10-18T07:45:50;10;9;
63305;PMS5003;50735;52.060;1.248;2022-10-18T07:48:17;13;8;
63305;PMS5003;50735;52.060;1.248;2022-10-18T07:50:44;13;9;
63305;PMS5003;50735;52.060;1.248;2022-10-18T07:53:10;9;9;
63305;PMS5003;50735;52.060;1.248;2022-10-18T07:55:37;14;9;
63305;PMS5003;50735;52.060;1.248;2022-10-18T07:58:04;11;11;
63305;PMS5003;50735;52.060;1.248;2022-10-18T08:00:31;10;8;
63305;PMS5003;50735;52.060;1.248;2022-10-18T08:02:58;12;11;
63305;PMS5003;50735;52.060;1.248;2022-10-18T08:05:25;10;10;
63305;PMS5003;50735;52.060;1.248;2022-10-18T08:07:53;15;9;
63305;PMS5003;50735;52.060;1.248;2022-10-18T08:10:21;10;9;
63305;PMS5003;50735;52.060;1.248;2022-10-18T08:12:48;11;10;
63305;PMS5003;50735;52.060;1.248;2022-10-18T08:15:16;7;7;
63305;PMS5003;50735;52.060;1.248;2022-10-18T08:17:42;12;8;
63305;PMS5003;50735;52.060;1.248;2022-10-18T08:20:09;8;8;
63305;PMS5003;50735;52.060;1.248;2022-10-18T08:22:36;8;7;
63305;PMS5003;50735;52.060;1.248;2022-10-18T08:25:03;5;5;
63305;PMS5003;50735;52.060;1.248;2022-10-18T08:27:30;13;10;
63305;PMS5003;50735;52.060;1.248;2022-10-18T08:29:57;20;15;
63305;PMS5003;50735;52.060;1.248;2022-10-18T08:32:24;16;15;
63305;PMS5003;50735;52.060;1.248;2022-10-18T08:34:50;21;18;
63305;PMS5003;50735;52.060;1.248;2022-10-18T08:37:17;17;17;
63305;PMS5003;50735;52.060;1.248;2022-10-18T08:39:45;30;27;
63305;PMS5003;50735;52.060;1.248;2022-10-18T08:42:16;25;22;
63305;PMS5003;50735;52.060;1.248;2022-10-18T08:44:53;18;16;
63305;PMS5003;50735;52.060;1.248;2022-10-18T08:47:22;13;12;
63305;PMS5003;50735;52.060;1.248;2022-10-18T08:49:57;11;9;
63305;PMS5003;50735;52.060;1.248;2022-10-18T08:52:30;7;5;
63305;PMS5003;50735;52.060;1.248;2022-10-18T08:55:00;10;9;
63305;PMS5003;50735;52.060;1.248;2022-10-18T08:57:30;7;5;
63305;PMS5003;50735;52.060;1.248;2022-10-18T08:59:57;7;7;
63305;PMS5003;50735;52.060;1.248;2022-10-18T09:02:28;6;4;
63305;PMS5003;50735;52.060;1.248;2022-10-18T09:05:06;4;4;
63305;PMS5003;50735;52.060;1.248;2022-10-18T09:08:02;4;4;
63305;PMS5003;50735;52.060;1.248;2022-10-18T09:10:41;4;4;
63305;PMS5003;50735;52.060;1.248;2022-10-18T09:13:19;7;6;
63305;PMS5003;50735;52.060;1.248;2022-10-18T09:16:01;7;6;
63305;PMS5003;50735;52.060;1.248;2022-10-18T09:18:35;10;8;
63305;PMS5003;50735;52.060;1.248;2022-10-18T09:21:18;11;9;
63305;PMS5003;50735;52.060;1.248;2022-10-18T09:23:48;11;10;
63305;PMS5003;50735;52.060;1.248;2022-10-18T09:26:30;10;9;
63305;PMS5003;50735;52.060;1.248;2022-10-18T09:29:06;13;10;
63305;PMS5003;50735;52.060;1.248;2022-10-18T09:31:45;14;11;
63305;PMS5003;50735;52.060;1.248;2022-10-18T09:34:21;4;4;
63305;PMS5003;50735;52.060;1.248;2022-10-18T09:36:55;5;2;
63305;PMS5003;50735;52.060;1.248;2022-10-18T09:39:22;6;4;
63305;PMS5003;50735;52.060;1.248;2022-10-18T09:41:55;5;1;
63305;PMS5003;50735;52.060;1.248;2022-10-18T09:44:26;3;2;
63305;PMS5003;50735;52.060;1.248;2022-10-18T09:46:56;5;3;
63305;PMS5003;50735;52.060;1.248;2022-10-18T09:49:28;8;4;
63305;PMS5003;50735;52.060;1.248;2022-10-18T09:51:58;2;0;
63305;PMS5003;50735;52.060;1.248;2022-10-18T09:54:30;3;3;
63305;PMS5003;50735;52.060;1.248;2022-10-18T09:57:01;2;2;
63305;PMS5003;50735;52.060;1.248;2022-10-18T09:59:35;4;3;
63305;PMS5003;50735;52.060;1.248;2022-10-18T10:02:05;3;3;
63305;PMS5003;50735;52.060;1.248;2022-10-18T10:04:37;9;8;
63305;PMS5003;50735;52.060;1.248;2022-10-18T10:07:06;3;3;
63305;PMS5003;50735;52.060;1.248;2022-10-18T10:09:39;9;4;
63305;PMS5003;50735;52.060;1.248;2022-10-18T10:12:22;1;1;
63305;PMS5003;50735;52.060;1.248;2022-10-18T10:14:52;6;2;
63305;PMS5003;50735;52.060;1.248;2022-10-18T10:17:20;5;4;
63305;PMS5003;50735;52.060;1.248;2022-10-18T10:19:55;5;4;
63305;PMS5003;50735;52.060;1.248;2022-10-18T10:22:25;5;2;
63305;PMS5003;50735;52.060;1.248;2022-10-18T10:25:01;4;3;
63305;PMS5003;50735;52.060;1.248;2022-10-18T10:27:30;2;2;
63305;PMS5003;50735;52.060;1.248;2022-10-18T10:30:00;5;2;
63305;PMS5003;50735;52.060;1.248;2022-10-18T10:32:29;1;1;
63305;PMS5003;50735;52.060;1.248;2022-10-18T10:34:57;6;3;
63305;PMS5003;50735;52.060;1.248;2022-10-18T10:37:26;1;1;
63305;PMS5003;50735;52.060;1.248;2022-10-18T10:40:05;2;1;
63305;PMS5003;50735;52.060;1.248;2022-10-18T10:42:51;1;1;
63305;PMS5003;50735;52.060;1.248;2022-10-18T10:45:21;2;2;
63305;PMS5003;50735;52.060;1.248;2022-10-18T10:47:50;3;3;
63305;PMS5003;50735;52.060;1.248;2022-10-18T10:50:21;5;3;
63305;PMS5003;50735;52.060;1.248;2022-10-18T10:52:50;3;1;
63305;PMS5003;50735;52.060;1.248;2022-10-18T10:55:18;1;1;
63305;PMS5003;50735;52.060;1.248;2022-10-18T10:57:48;3;2;
63305;PMS5003;50735;52.060;1.248;2022-10-18T11:00:49;5;3;
63305;PMS5003;50735;52.060;1.248;2022-10-18T11:03:17;9;7;
63305;PMS5003;50735;52.060;1.248;2022-10-18T11:05:46;5;4;
63305;PMS5003;50735;52.060;1.248;2022-10-18T11:08:15;2;2;
63305;PMS5003;50735;52.060;1.248;2022-10-18T11:10:52;5;4;
63305;PMS5003;50735;52.060;1.248;2022-10-18T11:13:30;4;4;
63305;PMS5003;50735;52.060;1.248;2022-10-18T11:16:10;4;4;
63305;PMS5003;50735;52.060;1.248;2022-10-18T11:18:41;11;7;
63305;PMS5003;50735;52.060;1.248;2022-10-18T11:21:12;10;9;
63305;PMS5003;50735;52.060;1.248;2022-10-18T11:23:43;10;9;
63305;PMS5003;50735;52.060;1.248;2022-10-18T11:26:13;11;8;
63305;PMS5003;50735;52.060;1.248;2022-10-18T11:28:55;11;9;
63305;PMS5003;50735;52.060;1.248;2022-10-18T11:31:33;7;7;
63305;PMS5003;50735;52.060;1.248;2022-10-18T11:34:12;9;7;
63305;PMS5003;50735;52.060;1.248;2022-10-18T11:36:55;3;3;
63305;PMS5003;50735;52.060;1.248;2022-10-18T11:39:34;4;4;
63305;PMS5003;50735;52.060;1.248;2022-10-18T11:42:14;4;4;
63305;PMS5003;50735;52.060;1.248;2022-10-18T11:44:51;4;4;
63305;PMS5003;50735;52.060;1.248;2022-10-18T11:47:26;2;2;
63305;PMS5003;50735;52.060;1.248;2022-10-18T11:50:06;4;3;
63305;PMS5003;50735;52.060;1.248;2022-10-18T11:52:40;3;3;
63305;PMS5003;50735;52.060;1.248;2022-10-18T11:55:18;2;2;
63305;PMS5003;50735;52.060;1.248;2022-10-18T11:57:55;1;0;
63305;PMS5003;50735;52.060;1.248;2022-10-18T12:00:36;2;2;
63305;PMS5003;50735;52.060;1.248;2022-10-18T12:03:19;3;2;
63305;PMS5003;50735;52.060;1.248;2022-10-18T12:05:52;4;2;
63305;PMS5003;50735;52.060;1.248;2022-10-18T12:08:23;0;0;
63305;PMS5003;50735;52.060;1.248;2022-10-18T12:10:53;0;0;
63305;PMS5003;50735;52.060;1.248;2022-10-18T12:13:24;4;2;
63305;PMS5003;50735;52.060;1.248;2022-10-18T12:15:56;5;4;
63305;PMS5003;50735;52.060;1.248;2022-10-18T12:18:23;5;5;
63305;PMS5003;50735;52.060;1.248;2022-10-18T12:20:52;4;4;
63305;PMS5003;50735;52.060;1.248;2022-10-18T12:23:25;3;2;
63305;PMS5003;50735;52.060;1.248;2022-10-18T12:26:03;3;1;
63305;PMS5003;50735;52.060;1.248;2022-10-18T12:28:33;3;1;
63305;PMS5003;50735;52.060;1.248;2022-10-18T12:31:12;1;1;
63305;PMS5003;50735;52.060;1.248;2022-10-18T12:33:46;2;2;
63305;PMS5003;50735;52.060;1.248;2022-10-18T12:36:22;2;2;
63305;PMS5003;50735;52.060;1.248;2022-10-18T12:39:04;4;2;
63305;PMS5003;50735;52.060;1.248;2022-10-18T12:41:36;2;2;
63305;PMS5003;50735;52.060;1.248;2022-10-18T12:44:04;1;1;
63305;PMS5003;50735;52.060;1.248;2022-10-18T12:46:50;1;1;
63305;PMS5003;50735;52.060;1.248;2022-10-18T12:49:20;3;1;
63305;PMS5003;50735;52.060;1.248;2022-10-18T12:51:53;2;2;
63305;PMS5003;50735;52.060;1.248;2022-10-18T12:54:22;0;0;
63305;PMS5003;50735;52.060;1.248;2022-10-18T12:56:53;1;1;
63305;PMS5003;50735;52.060;1.248;2022-10-18T12:59:39;1;1;
63305;PMS5003;50735;52.060;1.248;2022-10-18T13:02:14;0;0;
63305;PMS5003;50735;52.060;1.248;2022-10-18T13:04:48;4;3;
63305;PMS5003;50735;52.060;1.248;2022-10-18T13:07:19;3;0;
63305;PMS5003;50735;52.060;1.248;2022-10-18T13:10:31;3;1;
63305;PMS5003;50735;52.060;1.248;2022-10-18T13:13:04;2;0;
63305;PMS5003;50735;52.060;1.248;2022-10-18T13:13:44;2;0;
63305;PMS5003;50735;52.060;1.248;2022-10-18T13:16:23;2;1;
63305;PMS5003;50735;52.060;1.248;2022-10-18T13:19:08;2;2;
63305;PMS5003;50735;52.060;1.248;2022-10-18T13:21:45;1;1;
63305;PMS5003;50735;52.060;1.248;2022-10-18T13:24:22;1;1;
63305;PMS5003;50735;52.060;1.248;2022-10-18T13:26:57;0;0;
63305;PMS5003;50735;52.060;1.248;2022-10-18T13:29:49;3;2;
63305;PMS5003;50735;52.060;1.248;2022-10-18T13:32:43;5;0;
63305;PMS5003;50735;52.060;1.248;2022-10-18T13:35:49;0;0;
63305;PMS5003;50735;52.060;1.248;2022-10-18T13:38:24;0;0;
63305;PMS5003;50735;52.060;1.248;2022-10-18T13:41:00;3;1;
63305;PMS5003;50735;52.060;1.248;2022-10-18T13:44:33;1;1;
63305;PMS5003;50735;52.060;1.248;2022-10-18T13:47:10;2;2;
63305;PMS5003;50735;52.060;1.248;2022-10-18T13:49:49;2;2;
63305;PMS5003;50735;52.060;1.248;2022-10-18T13:52:30;3;1;
63305;PMS5003;50735;52.060;1.248;2022-10-18T13:55:15;4;3;
63305;PMS5003;50735;52.060;1.248;2022-10-18T13:57:56;5;2;
63305;PMS5003;50735;52.060;1.248;2022-10-18T14:00:36;2;0;
63305;PMS5003;50735;52.060;1.248;2022-10-18T14:03:18;6;3;
63305;PMS5003;50735;52.060;1.248;2022-10-18T14:06:03;5;3;
63305;PMS5003;50735;52.060;1.248;2022-10-18T14:08:35;5;3;
63305;PMS5003;50735;52.060;1.248;2022-10-18T14:11:10;2;2;
63305;PMS5003;50735;52.060;1.248;2022-10-18T14:13:46;6;4;
63305;PMS5003;50735;52.060;1.248;2022-10-18T14:16:25;2;2;
63305;PMS5003;50735;52.060;1.248;2022-10-18T14:18:58;3;3;
63305;PMS5003;50735;52.060;1.248;2022-10-18T14:21:36;7;5;
63305;PMS5003;50735;52.060;1.248;2022-10-18T14:24:11;1;1;
63305;PMS5003;50735;52.060;1.248;2022-10-18T14:26:44;4;1;
63305;PMS5003;50735;52.060;1.248;2022-10-18T14:29:15;2;2;
63305;PMS5003;50735;52.060;1.248;2022-10-18T14:31:47;2;2;
63305;PMS5003;50735;52.060;1.248;2022-10-18T14:34:17;3;1;
63305;PMS5003;50735;52.060;1.248;2022-10-18T14:36:45;2;1;
63305;PMS5003;50735;52.060;1.248;2022-10-18T14:39:16;2;2;
63305;PMS5003;50735;52.060;1.248;2022-10-18T14:41:47;2;1;
63305;PMS5003;50735;52.060;1.248;2022-10-18T14:44:17;1;1;
63305;PMS5003;50735;52.060;1.248;2022-10-18T14:46:46;3;3;
63305;PMS5003;50735;52.060;1.248;2022-10-18T14:49:16;5;3;
63305;PMS5003;50735;52.060;1.248;2022-10-18T14:51:45;3;1;
63305;PMS5003;50735;52.060;1.248;2022-10-18T14:54:16;4;3;
63305;PMS5003;50735;52.060;1.248;2022-10-18T14:56:45;0;0;
63305;PMS5003;50735;52.060;1.248;2022-10-18T14:59:14;3;1;
63305;PMS5003;50735;52.060;1.248;2022-10-18T15:01:52;1;1;
63305;PMS5003;50735;52.060;1.248;2022-10-18T15:04:22;1;1;
63305;PMS5003;50735;52.060;1.248;2022-10-18T15:06:50;0;0;
63305;PMS5003;50735;52.060;1.248;2022-10-18T15:09:19;7;1;
63305;PMS5003;50735;52.060;1.248;2022-10-18T15:11:49;3;1;
63305;PMS5003;50735;52.060;1.248;2022-10-18T15:14:17;1;1;
63305;PMS5003;50735;52.060;1.248;2022-10-18T15:16:45;3;1;
63305;PMS5003;50735;52.060;1.248;2022-10-18T15:19:30;0;0;
63305;PMS5003;50735;52.060;1.248;2022-10-18T15:22:00;2;1;
63305;PMS5003;50735;52.060;1.248;2022-10-18T15:24:30;1;1;
63305;PMS5003;50735;52.060;1.248;2022-10-18T15:27:00;0;0;
63305;PMS5003;50735;52.060;1.248;2022-10-18T15:29:34;1;1;
63305;PMS5003;50735;52.060;1.248;2022-10-18T15:32:06;1;1;
63305;PMS5003;50735;52.060;1.248;2022-10-18T15:34:39;1;1;
63305;PMS5003;50735;52.060;1.248;2022-10-18T15:37:15;3;1;
63305;PMS5003;50735;52.060;1.248;2022-10-18T15:39:44;2;0;
63305;PMS5003;50735;52.060;1.248;2022-10-18T15:42:33;2;0;
63305;PMS5003;50735;52.060;1.248;2022-10-18T15:45:20;2;2;
63305;PMS5003;50735;52.060;1.248;2022-10-18T15:47:56;0;0;
63305;PMS5003;50735;52.060;1.248;2022-10-18T15:50:34;2;2;
63305;PMS5003;50735;52.060;1.248;2022-10-18T15:53:21;1;1;
63305;PMS5003;50735;52.060;1.248;2022-10-18T15:55:56;3;0;
63305;PMS5003;50735;52.060;1.248;2022-10-18T15:58:25;4;2;
63305;PMS5003;50735;52.060;1.248;2022-10-18T16:00:55;4;3;
63305;PMS5003;50735;52.060;1.248;2022-10-18T16:03:24;1;1;
63305;PMS5003;50735;52.060;1.248;2022-10-18T16:05:52;0;0;
63305;PMS5003;50735;52.060;1.248;2022-10-18T16:08:25;2;1;
63305;PMS5003;50735;52.060;1.248;2022-10-18T16:10:54;5;0;
63305;PMS5003;50735;52.060;1.248;2022-10-18T16:13:21;2;2;
63305;PMS5003;50735;52.060;1.248;2022-10-18T16:15:47;1;1;
63305;PMS5003;50735;52.060;1.248;2022-10-18T16:18:16;2;2;
63305;PMS5003;50735;52.060;1.248;2022-10-18T16:20:44;2;2;
63305;PMS5003;50735;52.060;1.248;2022-10-18T16:23:15;3;2;
63305;PMS5003;50735;52.060;1.248;2022-10-18T16:25:44;4;2;
63305;PMS5003;50735;52.060;1.248;2022-10-18T16:28:13;2;2;
63305;PMS5003;50735;52.060;1.248;2022-10-18T16:30:42;1;1;
63305;PMS5003;50735;52.060;1.248;2022-10-18T16:33:10;3;2;
63305;PMS5003;50735;52.060;1.248;2022-10-18T16:35:37;2;2;
63305;PMS5003;50735;52.060;1.248;2022-10-18T16:38:03;3;3;
63305;PMS5003;50735;52.060;1.248;2022-10-18T16:40:30;7;5;
63305;PMS5003;50735;52.060;1.248;2022-10-18T16:42:57;4;2;
63305;PMS5003;50735;52.060;1.248;2022-10-18T16:45:23;2;2;
63305;PMS5003;50735;52.060;1.248;2022-10-18T16:47:50;7;4;
63305;PMS5003;50735;52.060;1.248;2022-10-18T16:50:17;2;1;
63305;PMS5003;50735;52.060;1.248;2022-10-18T16:52:44;7;3;
63305;PMS5003;50735;52.060;1.248;2022-10-18T16:55:11;3;1;
63305;PMS5003;50735;52.060;1.248;2022-10-18T16:57:38;4;2;
63305;PMS5003;50735;52.060;1.248;2022-10-18T17:00:04;2;2;
63305;PMS5003;50735;52.060;1.248;2022-10-18T17:02:32;2;2;
63305;PMS5003;50735;52.060;1.248;2022-10-18T17:04:59;3;3;
63305;PMS5003;50735;52.060;1.248;2022-10-18T17:07:26;3;3;
63305;PMS5003;50735;52.060;1.248;2022-10-18T17:09:52;4;2;